sensor_id;sensor_type;location;lat;lon;timestamp;P1;durP1;ratioP1;P2;durP2;ratioP2
5303;SDS011;2674;49.722;10.892;2023-02-01T00:00:21;4.50;;;3.93;;
5303;SDS011;2674;49.722;10.892;2023-02-01T00:02:47;5.70;;;4.80;;
5303;SDS011;2674;49.722;10.892;2023-02-01T00:05:13;5.40;;;4.13;;
5303;SDS011;2674;49.722;10.892;2023-02-01T00:07:39;5.90;;;5.10;;
5303;SDS011;2674;49.722;10.892;2023-02-01T00:10:05;8.80;;;5.67;;
5303;SDS011;2674;49.722;10.892;2023-02-01T00:12:32;6.20;;;5.10;;
5303;SDS011;2674;49.722;10.892;2023-02-01T00:14:58;5.67;;;4.63;;
5303;SDS011;2674;49.722;10.892;2023-02-01T00:17:24;5.10;;;4.40;;
5303;SDS011;2674;49.722;10.892;2023-02-01T00:19:50;4.40;;;3.80;;
5303;SDS011;2674;49.722;10.892;2023-02-01T00:22:16;7.07;;;5.00;;
5303;SDS011;2674;49.722;10.892;2023-02-01T00:24:42;7.07;;;5.07;;
5303;SDS011;2674;49.722;10.892;2023-02-01T00:27:08;9.67;;;5.27;;
5303;SDS011;2674;49.722;10.892;2023-02-01T00:29:33;6.07;;;5.00;;
5303;SDS011;2674;49.722;10.892;2023-02-01T00:31:59;7.47;;;4.97;;
5303;SDS011;2674;49.722;10.892;2023-02-01T00:34:25;8.80;;;5.33;;
5303;SDS011;2674;49.722;10.892;2023-02-01T00:36:51;10.13;;;6.07;;
5303;SDS011;2674;49.722;10.892;2023-02-01T00:39:16;8.20;;;5.97;;
5303;SDS011;2674;49.722;10.892;2023-02-01T00:41:42;6.47;;;5.20;;
5303;SDS011;2674;49.722;10.892;2023-02-01T00:44:08;6.20;;;4.50;;
5303;SDS011;2674;49.722;10.892;2023-02-01T00:46:34;10.10;;;5.73;;
5303;SDS011;2674;49.722;10.892;2023-02-01T00:49:01;6.83;;;6.13;;
5303;SDS011;2674;49.722;10.892;2023-02-01T00:51:27;13.70;;;6.10;;
5303;SDS011;2674;49.722;10.892;2023-02-01T00:53:55;7.43;;;5.60;;
5303;SDS011;2674;49.722;10.892;2023-02-01T00:56:21;9.00;;;5.43;;
5303;SDS011;2674;49.722;10.892;2023-02-01T00:58:47;8.93;;;5.23;;
5303;SDS011;2674;49.722;10.892;2023-02-01T01:01:20;8.30;;;6.03;;
5303;SDS011;2674;49.722;10.892;2023-02-01T01:03:48;7.03;;;4.83;;
5303;SDS011;2674;49.722;10.892;2023-02-01T01:06:18;10.13;;;4.80;;
5303;SDS011;2674;49.722;10.892;2023-02-01T01:08:46;5.20;;;4.63;;
5303;SDS011;2674;49.722;10.892;2023-02-01T01:11:17;8.47;;;4.60;;
5303;SDS011;2674;49.722;10.892;2023-02-01T01:13:46;10.20;;;4.70;;
5303;SDS011;2674;49.722;10.892;2023-02-01T01:16:13;6.70;;;5.33;;
5303;SDS011;2674;49.722;10.892;2023-02-01T01:18:39;8.30;;;5.50;;
5303;SDS011;2674;49.722;10.892;2023-02-01T01:21:05;7.20;;;5.23;;
5303;SDS011;2674;49.722;10.892;2023-02-01T01:23:32;5.30;;;4.50;;
5303;SDS011;2674;49.722;10.892;2023-02-01T01:26:00;6.00;;;4.37;;
5303;SDS011;2674;49.722;10.892;2023-02-01T01:28:26;7.20;;;4.23;;
5303;SDS011;2674;49.722;10.892;2023-02-01T01:30:51;4.07;;;3.67;;
5303;SDS011;2674;49.722;10.892;2023-02-01T01:33:17;6.90;;;3.80;;
5303;SDS011;2674;49.722;10.892;2023-02-01T01:35:43;7.63;;;3.90;;
5303;SDS011;2674;49.722;10.892;2023-02-01T01:38:09;5.87;;;3.53;;
5303;SDS011;2674;49.722;10.892;2023-02-01T01:40:36;5.30;;;4.37;;
5303;SDS011;2674;49.722;10.892;2023-02-01T01:43:02;10.03;;;3.63;;
5303;SDS011;2674;49.722;10.892;2023-02-01T01:45:29;3.97;;;3.67;;
5303;SDS011;2674;49.722;10.892;2023-02-01T01:47:58;5.57;;;4.97;;
5303;SDS011;2674;49.722;10.892;2023-02-01T01:50:35;8.63;;;4.63;;
5303;SDS011;2674;49.722;10.892;2023-02-01T01:53:10;5.33;;;4.10;;
5303;SDS011;2674;49.722;10.892;2023-02-01T01:55:40;7.17;;;4.93;;
5303;SDS011;2674;49.722;10.892;2023-02-01T01:58:10;5.33;;;4.63;;
5303;SDS011;2674;49.722;10.892;2023-02-01T02:00:40;7.53;;;4.27;;
5303;SDS011;2674;49.722;10.892;2023-02-01T02:03:09;8.27;;;4.63;;
5303;SDS011;2674;49.722;10.892;2023-02-01T02:05:42;3.80;;;3.50;;
5303;SDS011;2674;49.722;10.892;2023-02-01T02:08:10;5.37;;;4.43;;
5303;SDS011;2674;49.722;10.892;2023-02-01T02:10:36;5.87;;;4.60;;
5303;SDS011;2674;49.722;10.892;2023-02-01T02:13:21;4.70;;;4.30;;
5303;SDS011;2674;49.722;10.892;2023-02-01T02:16:34;6.00;;;5.20;;
5303;SDS011;2674;49.722;10.892;2023-02-01T02:18:41;11.30;;;4.80;;
5303;SDS011;2674;49.722;10.892;2023-02-01T02:32:47;7.93;;;5.37;;
5303;SDS011;2674;49.722;10.892;2023-02-01T02:38:18;6.50;;;5.17;;
5303;SDS011;2674;49.722;10.892;2023-02-01T02:41:06;5.80;;;5.00;;
5303;SDS011;2674;49.722;10.892;2023-02-01T02:44:43;6.63;;;4.97;;
5303;SDS011;2674;49.722;10.892;2023-02-01T02:50:35;6.23;;;4.40;;
5303;SDS011;2674;49.722;10.892;2023-02-01T02:56:32;5.47;;;4.17;;
5303;SDS011;2674;49.722;10.892;2023-02-01T02:59:18;9.17;;;4.77;;
5303;SDS011;2674;49.722;10.892;2023-02-01T03:02:05;8.30;;;5.47;;
5303;SDS011;2674;49.722;10.892;2023-02-01T03:04:53;6.90;;;6.03;;
5303;SDS011;2674;49.722;10.892;2023-02-01T03:13:04;4.87;;;4.40;;
5303;SDS011;2674;49.722;10.892;2023-02-01T03:18:13;7.60;;;4.37;;
5303;SDS011;2674;49.722;10.892;2023-02-01T03:20:46;6.27;;;4.10;;
5303;SDS011;2674;49.722;10.892;2023-02-01T03:23:16;5.57;;;3.90;;
5303;SDS011;2674;49.722;10.892;2023-02-01T03:25:46;6.77;;;4.30;;
5303;SDS011;2674;49.722;10.892;2023-02-01T03:28:13;7.93;;;5.00;;
5303;SDS011;2674;49.722;10.892;2023-02-01T03:30:45;5.97;;;4.07;;
5303;SDS011;2674;49.722;10.892;2023-02-01T03:33:13;4.17;;;3.70;;
5303;SDS011;2674;49.722;10.892;2023-02-01T03:39:07;4.00;;;3.57;;
5303;SDS011;2674;49.722;10.892;2023-02-01T03:44:04;3.90;;;3.47;;
5303;SDS011;2674;49.722;10.892;2023-02-01T03:46:45;4.03;;;3.63;;
5303;SDS011;2674;49.722;10.892;2023-02-01T03:49:19;3.90;;;3.50;;
5303;SDS011;2674;49.722;10.892;2023-02-01T03:51:59;6.53;;;4.70;;
5303;SDS011;2674;49.722;10.892;2023-02-01T03:54:27;4.70;;;4.17;;
5303;SDS011;2674;49.722;10.892;2023-02-01T03:56:55;8.33;;;4.50;;
5303;SDS011;2674;49.722;10.892;2023-02-01T03:59:24;8.97;;;5.67;;
5303;SDS011;2674;49.722;10.892;2023-02-01T04:01:50;5.27;;;4.63;;
5303;SDS011;2674;49.722;10.892;2023-02-01T04:04:16;10.50;;;5.83;;
5303;SDS011;2674;49.722;10.892;2023-02-01T04:06:48;6.47;;;4.90;;
5303;SDS011;2674;49.722;10.892;2023-02-01T04:09:15;6.00;;;5.13;;
5303;SDS011;2674;49.722;10.892;2023-02-01T04:11:44;6.87;;;4.80;;
5303;SDS011;2674;49.722;10.892;2023-02-01T04:14:10;4.90;;;4.10;;
5303;SDS011;2674;49.722;10.892;2023-02-01T04:16:35;6.80;;;4.73;;
5303;SDS011;2674;49.722;10.892;2023-02-01T04:19:01;5.00;;;4.50;;
5303;SDS011;2674;49.722;10.892;2023-02-01T04:21:27;4.43;;;3.87;;
5303;SDS011;2674;49.722;10.892;2023-02-01T04:23:53;8.83;;;5.17;;
5303;SDS011;2674;49.722;10.892;2023-02-01T04:26:19;7.17;;;5.83;;
5303;SDS011;2674;49.722;10.892;2023-02-01T04:28:46;8.43;;;4.87;;
5303;SDS011;2674;49.722;10.892;2023-02-01T04:31:16;7.33;;;5.40;;
5303;SDS011;2674;49.722;10.892;2023-02-01T04:33:43;7.93;;;5.10;;
5303;SDS011;2674;49.722;10.892;2023-02-01T04:36:09;6.33;;;5.30;;
5303;SDS011;2674;49.722;10.892;2023-02-01T04:38:35;8.30;;;6.53;;
5303;SDS011;2674;49.722;10.892;2023-02-01T04:41:00;5.33;;;4.27;;
5303;SDS011;2674;49.722;10.892;2023-02-01T04:43:26;7.97;;;5.10;;
5303;SDS011;2674;49.722;10.892;2023-02-01T04:45:52;5.43;;;4.00;;
5303;SDS011;2674;49.722;10.892;2023-02-01T04:48:19;5.93;;;4.53;;
5303;SDS011;2674;49.722;10.892;2023-02-01T04:50:45;4.63;;;3.40;;
5303;SDS011;2674;49.722;10.892;2023-02-01T04:53:15;9.97;;;4.93;;
5303;SDS011;2674;49.722;10.892;2023-02-01T04:55:41;9.77;;;6.47;;
5303;SDS011;2674;49.722;10.892;2023-02-01T04:58:08;3.30;;;3.00;;
5303;SDS011;2674;49.722;10.892;2023-02-01T05:00:35;6.67;;;4.60;;
5303;SDS011;2674;49.722;10.892;2023-02-01T05:03:02;8.20;;;4.60;;
5303;SDS011;2674;49.722;10.892;2023-02-01T05:05:28;5.00;;;4.10;;
5303;SDS011;2674;49.722;10.892;2023-02-01T05:07:54;5.07;;;4.57;;
5303;SDS011;2674;49.722;10.892;2023-02-01T05:10:20;6.47;;;4.13;;
5303;SDS011;2674;49.722;10.892;2023-02-01T05:12:47;5.67;;;4.43;;
5303;SDS011;2674;49.722;10.892;2023-02-01T05:15:31;7.60;;;4.20;;
5303;SDS011;2674;49.722;10.892;2023-02-01T05:17:57;11.00;;;4.50;;
5303;SDS011;2674;49.722;10.892;2023-02-01T05:20:23;6.50;;;5.27;;
5303;SDS011;2674;49.722;10.892;2023-02-01T05:22:49;9.87;;;4.77;;
5303;SDS011;2674;49.722;10.892;2023-02-01T05:25:15;7.13;;;4.70;;
5303;SDS011;2674;49.722;10.892;2023-02-01T05:27:41;5.00;;;4.40;;
5303;SDS011;2674;49.722;10.892;2023-02-01T05:30:11;17.27;;;6.60;;
5303;SDS011;2674;49.722;10.892;2023-02-01T05:32:37;9.20;;;4.97;;
5303;SDS011;2674;49.722;10.892;2023-02-01T05:35:03;5.83;;;4.40;;
5303;SDS011;2674;49.722;10.892;2023-02-01T05:37:29;10.20;;;6.00;;
5303;SDS011;2674;49.722;10.892;2023-02-01T05:39:55;13.70;;;6.13;;
5303;SDS011;2674;49.722;10.892;2023-02-01T05:42:20;6.47;;;5.20;;
5303;SDS011;2674;49.722;10.892;2023-02-01T05:44:46;8.83;;;5.10;;
5303;SDS011;2674;49.722;10.892;2023-02-01T05:47:12;9.00;;;4.20;;
5303;SDS011;2674;49.722;10.892;2023-02-01T05:49:38;10.90;;;4.90;;
5303;SDS011;2674;49.722;10.892;2023-02-01T05:52:04;7.23;;;4.27;;
5303;SDS011;2674;49.722;10.892;2023-02-01T05:54:30;9.37;;;4.80;;
5303;SDS011;2674;49.722;10.892;2023-02-01T05:56:55;11.00;;;5.00;;
5303;SDS011;2674;49.722;10.892;2023-02-01T05:59:21;7.53;;;4.60;;
5303;SDS011;2674;49.722;10.892;2023-02-01T06:01:47;7.37;;;4.13;;
5303;SDS011;2674;49.722;10.892;2023-02-01T06:04:13;12.57;;;4.30;;
5303;SDS011;2674;49.722;10.892;2023-02-01T06:06:39;18.03;;;4.60;;
5303;SDS011;2674;49.722;10.892;2023-02-01T06:09:05;5.23;;;3.43;;
5303;SDS011;2674;49.722;10.892;2023-02-01T06:11:31;9.57;;;3.80;;
5303;SDS011;2674;49.722;10.892;2023-02-01T06:13:57;8.10;;;2.73;;
5303;SDS011;2674;49.722;10.892;2023-02-01T06:16:23;7.00;;;2.00;;
5303;SDS011;2674;49.722;10.892;2023-02-01T06:18:48;14.77;;;2.23;;
5303;SDS011;2674;49.722;10.892;2023-02-01T06:21:14;6.30;;;2.90;;
5303;SDS011;2674;49.722;10.892;2023-02-01T06:23:48;10.50;;;3.10;;
5303;SDS011;2674;49.722;10.892;2023-02-01T06:26:15;8.80;;;2.67;;
5303;SDS011;2674;49.722;10.892;2023-02-01T06:28:43;5.83;;;2.83;;
5303;SDS011;2674;49.722;10.892;2023-02-01T06:31:09;15.50;;;2.80;;
5303;SDS011;2674;49.722;10.892;2023-02-01T06:33:35;3.13;;;2.30;;
5303;SDS011;2674;49.722;10.892;2023-02-01T06:36:03;3.67;;;2.97;;
5303;SDS011;2674;49.722;10.892;2023-02-01T06:38:31;4.63;;;2.73;;
5303;SDS011;2674;49.722;10.892;2023-02-01T06:41:00;2.77;;;2.00;;
5303;SDS011;2674;49.722;10.892;2023-02-01T06:43:27;6.93;;;2.90;;
5303;SDS011;2674;49.722;10.892;2023-02-01T06:45:53;5.47;;;2.40;;
5303;SDS011;2674;49.722;10.892;2023-02-01T06:48:28;4.47;;;3.20;;
5303;SDS011;2674;49.722;10.892;2023-02-01T06:50:54;2.73;;;2.30;;
5303;SDS011;2674;49.722;10.892;2023-02-01T06:53:19;2.20;;;2.00;;
5303;SDS011;2674;49.722;10.892;2023-02-01T06:55:55;1.97;;;1.87;;
5303;SDS011;2674;49.722;10.892;2023-02-01T06:58:23;6.67;;;2.50;;
5303;SDS011;2674;49.722;10.892;2023-02-01T07:00:52;5.53;;;3.40;;
5303;SDS011;2674;49.722;10.892;2023-02-01T07:03:18;3.67;;;2.20;;
5303;SDS011;2674;49.722;10.892;2023-02-01T07:05:44;10.93;;;2.80;;
5303;SDS011;2674;49.722;10.892;2023-02-01T07:08:10;9.27;;;2.40;;
5303;SDS011;2674;49.722;10.892;2023-02-01T07:10:36;2.93;;;2.73;;
5303;SDS011;2674;49.722;10.892;2023-02-01T07:13:02;2.17;;;1.97;;
5303;SDS011;2674;49.722;10.892;2023-02-01T07:15:28;2.30;;;2.10;;
5303;SDS011;2674;49.722;10.892;2023-02-01T07:17:54;1.90;;;1.80;;
5303;SDS011;2674;49.722;10.892;2023-02-01T07:20:20;3.90;;;2.10;;
5303;SDS011;2674;49.722;10.892;2023-02-01T07:22:46;4.80;;;2.20;;
5303;SDS011;2674;49.722;10.892;2023-02-01T07:25:12;2.60;;;2.30;;
5303;SDS011;2674;49.722;10.892;2023-02-01T07:27:38;2.50;;;2.00;;
5303;SDS011;2674;49.722;10.892;2023-02-01T07:30:04;2.80;;;1.70;;
5303;SDS011;2674;49.722;10.892;2023-02-01T07:32:30;3.03;;;2.30;;
5303;SDS011;2674;49.722;10.892;2023-02-01T07:34:56;2.57;;;1.90;;
5303;SDS011;2674;49.722;10.892;2023-02-01T07:37:24;2.90;;;2.60;;
5303;SDS011;2674;49.722;10.892;2023-02-01T07:39:51;6.43;;;2.50;;
5303;SDS011;2674;49.722;10.892;2023-02-01T07:42:17;3.00;;;2.37;;
5303;SDS011;2674;49.722;10.892;2023-02-01T07:44:43;5.43;;;2.40;;
5303;SDS011;2674;49.722;10.892;2023-02-01T07:47:09;2.40;;;2.20;;
5303;SDS011;2674;49.722;10.892;2023-02-01T07:49:34;7.43;;;2.37;;
5303;SDS011;2674;49.722;10.892;2023-02-01T07:52:00;4.50;;;2.97;;
5303;SDS011;2674;49.722;10.892;2023-02-01T07:54:26;2.60;;;2.40;;
5303;SDS011;2674;49.722;10.892;2023-02-01T07:56:52;4.57;;;2.57;;
5303;SDS011;2674;49.722;10.892;2023-02-01T07:59:18;6.67;;;2.97;;
5303;SDS011;2674;49.722;10.892;2023-02-01T08:01:44;9.10;;;3.10;;
5303;SDS011;2674;49.722;10.892;2023-02-01T08:04:11;6.07;;;2.50;;
5303;SDS011;2674;49.722;10.892;2023-02-01T08:06:37;4.57;;;3.47;;
5303;SDS011;2674;49.722;10.892;2023-02-01T08:09:06;11.20;;;3.27;;
5303;SDS011;2674;49.722;10.892;2023-02-01T08:11:35;7.70;;;2.67;;
5303;SDS011;2674;49.722;10.892;2023-02-01T08:14:03;6.47;;;2.57;;
5303;SDS011;2674;49.722;10.892;2023-02-01T08:16:29;11.23;;;3.37;;
5303;SDS011;2674;49.722;10.892;2023-02-01T08:18:55;6.70;;;2.87;;
5303;SDS011;2674;49.722;10.892;2023-02-01T08:21:25;2.67;;;2.47;;
5303;SDS011;2674;49.722;10.892;2023-02-01T08:24:01;4.67;;;2.77;;
5303;SDS011;2674;49.722;10.892;2023-02-01T08:26:28;6.50;;;3.43;;
5303;SDS011;2674;49.722;10.892;2023-02-01T08:28:55;12.50;;;2.83;;
5303;SDS011;2674;49.722;10.892;2023-02-01T08:31:23;13.60;;;2.80;;
5303;SDS011;2674;49.722;10.892;2023-02-01T08:33:52;5.47;;;2.90;;
5303;SDS011;2674;49.722;10.892;2023-02-01T08:36:22;5.33;;;2.57;;
5303;SDS011;2674;49.722;10.892;2023-02-01T08:38:49;8.07;;;2.53;;
5303;SDS011;2674;49.722;10.892;2023-02-01T08:41:18;2.07;;;1.83;;
5303;SDS011;2674;49.722;10.892;2023-02-01T08:43:45;6.03;;;2.30;;
5303;SDS011;2674;49.722;10.892;2023-02-01T08:46:13;3.77;;;1.60;;
5303;SDS011;2674;49.722;10.892;2023-02-01T08:48:39;4.30;;;2.00;;
5303;SDS011;2674;49.722;10.892;2023-02-01T08:51:06;5.70;;;2.60;;
5303;SDS011;2674;49.722;10.892;2023-02-01T08:53:33;6.63;;;2.40;;
5303;SDS011;2674;49.722;10.892;2023-02-01T08:55:58;6.43;;;2.50;;
5303;SDS011;2674;49.722;10.892;2023-02-01T08:58:25;9.00;;;2.97;;
5303;SDS011;2674;49.722;10.892;2023-02-01T09:00:51;5.50;;;2.37;;
5303;SDS011;2674;49.722;10.892;2023-02-01T09:03:17;3.43;;;2.40;;
5303;SDS011;2674;49.722;10.892;2023-02-01T09:05:43;8.30;;;4.57;;
5303;SDS011;2674;49.722;10.892;2023-02-01T09:08:10;3.40;;;2.30;;
5303;SDS011;2674;49.722;10.892;2023-02-01T09:10:40;9.33;;;2.40;;
5303;SDS011;2674;49.722;10.892;2023-02-01T09:13:06;5.07;;;2.30;;
5303;SDS011;2674;49.722;10.892;2023-02-01T09:15:33;3.93;;;1.80;;
5303;SDS011;2674;49.722;10.892;2023-02-01T09:17:59;8.33;;;2.40;;
5303;SDS011;2674;49.722;10.892;2023-02-01T09:20:25;4.50;;;2.00;;
5303;SDS011;2674;49.722;10.892;2023-02-01T09:22:51;7.80;;;2.63;;
5303;SDS011;2674;49.722;10.892;2023-02-01T09:25:18;3.13;;;2.27;;
5303;SDS011;2674;49.722;10.892;2023-02-01T09:27:44;14.93;;;2.80;;
5303;SDS011;2674;49.722;10.892;2023-02-01T09:30:10;6.53;;;3.13;;
5303;SDS011;2674;49.722;10.892;2023-02-01T09:32:36;3.30;;;2.10;;
5303;SDS011;2674;49.722;10.892;2023-02-01T09:35:02;2.80;;;1.93;;
5303;SDS011;2674;49.722;10.892;2023-02-01T09:37:28;7.20;;;1.70;;
5303;SDS011;2674;49.722;10.892;2023-02-01T09:39:54;6.93;;;2.13;;
5303;SDS011;2674;49.722;10.892;2023-02-01T09:45:37;4.70;;;2.00;;
5303;SDS011;2674;49.722;10.892;2023-02-01T09:47:47;5.90;;;2.27;;
5303;SDS011;2674;49.722;10.892;2023-02-01T09:50:22;4.63;;;1.93;;
5303;SDS011;2674;49.722;10.892;2023-02-01T09:55:41;6.00;;;2.70;;
5303;SDS011;2674;49.722;10.892;2023-02-01T10:00:56;4.20;;;1.93;;
5303;SDS011;2674;49.722;10.892;2023-02-01T10:03:25;6.53;;;2.50;;
5303;SDS011;2674;49.722;10.892;2023-02-01T10:05:58;10.20;;;2.37;;
5303;SDS011;2674;49.722;10.892;2023-02-01T10:17:37;10.30;;;3.43;;
5303;SDS011;2674;49.722;10.892;2023-02-01T10:25:36;5.13;;;1.80;;
5303;SDS011;2674;49.722;10.892;2023-02-01T10:28:11;6.67;;;2.70;;
5303;SDS011;2674;49.722;10.892;2023-02-01T10:30:43;11.93;;;2.73;;
5303;SDS011;2674;49.722;10.892;2023-02-01T10:35:39;7.93;;;3.03;;
5303;SDS011;2674;49.722;10.892;2023-02-01T10:38:14;5.17;;;2.20;;
5303;SDS011;2674;49.722;10.892;2023-02-01T10:40:53;12.33;;;3.00;;
5303;SDS011;2674;49.722;10.892;2023-02-01T10:43:22;3.37;;;2.40;;
5303;SDS011;2674;49.722;10.892;2023-02-01T10:45:48;13.13;;;1.97;;
5303;SDS011;2674;49.722;10.892;2023-02-01T10:48:14;8.53;;;3.13;;
5303;SDS011;2674;49.722;10.892;2023-02-01T10:55:52;6.40;;;2.20;;
5303;SDS011;2674;49.722;10.892;2023-02-01T10:58:28;6.60;;;2.20;;
5303;SDS011;2674;49.722;10.892;2023-02-01T11:00:58;7.70;;;3.33;;
5303;SDS011;2674;49.722;10.892;2023-02-01T11:06:47;10.40;;;2.70;;
5303;SDS011;2674;49.722;10.892;2023-02-01T11:14:47;7.37;;;2.20;;
5303;SDS011;2674;49.722;10.892;2023-02-01T11:17:17;5.40;;;2.37;;
5303;SDS011;2674;49.722;10.892;2023-02-01T11:19:56;10.80;;;2.47;;
5303;SDS011;2674;49.722;10.892;2023-02-01T11:22:27;6.93;;;2.40;;
5303;SDS011;2674;49.722;10.892;2023-02-01T11:24:55;14.73;;;2.60;;
5303;SDS011;2674;49.722;10.892;2023-02-01T11:27:22;13.90;;;3.00;;
5303;SDS011;2674;49.722;10.892;2023-02-01T11:29:50;3.27;;;1.70;;
5303;SDS011;2674;49.722;10.892;2023-02-01T11:32:21;8.30;;;2.00;;
5303;SDS011;2674;49.722;10.892;2023-02-01T11:34:53;7.10;;;2.40;;
5303;SDS011;2674;49.722;10.892;2023-02-01T11:37:27;11.20;;;2.47;;
5303;SDS011;2674;49.722;10.892;2023-02-01T11:39:57;8.03;;;2.60;;
5303;SDS011;2674;49.722;10.892;2023-02-01T11:42:29;5.50;;;2.20;;
5303;SDS011;2674;49.722;10.892;2023-02-01T11:47:42;6.50;;;2.30;;
5303;SDS011;2674;49.722;10.892;2023-02-01T11:50:18;4.23;;;1.93;;
5303;SDS011;2674;49.722;10.892;2023-02-01T11:58:16;7.40;;;2.47;;
5303;SDS011;2674;49.722;10.892;2023-02-01T12:06:51;9.57;;;2.57;;
5303;SDS011;2674;49.722;10.892;2023-02-01T12:09:37;7.40;;;1.90;;
5303;SDS011;2674;49.722;10.892;2023-02-01T12:39:41;2.77;;;2.00;;
5303;SDS011;2674;49.722;10.892;2023-02-01T12:42:24;4.10;;;1.93;;
5303;SDS011;2674;49.722;10.892;2023-02-01T12:47:52;4.53;;;1.53;;
5303;SDS011;2674;49.722;10.892;2023-02-01T12:50:24;3.93;;;1.93;;
5303;SDS011;2674;49.722;10.892;2023-02-01T12:55:56;7.90;;;2.60;;
5303;SDS011;2674;49.722;10.892;2023-02-01T12:58:46;5.40;;;2.40;;
5303;SDS011;2674;49.722;10.892;2023-02-01T13:01:21;4.97;;;2.07;;
5303;SDS011;2674;49.722;10.892;2023-02-01T13:04:02;5.47;;;2.13;;
5303;SDS011;2674;49.722;10.892;2023-02-01T13:09:15;10.57;;;2.87;;
5303;SDS011;2674;49.722;10.892;2023-02-01T13:11:44;4.47;;;2.80;;
5303;SDS011;2674;49.722;10.892;2023-02-01T13:17:03;4.43;;;1.77;;
5303;SDS011;2674;49.722;10.892;2023-02-01T13:19:35;10.90;;;2.50;;
5303;SDS011;2674;49.722;10.892;2023-02-01T13:22:24;8.43;;;1.97;;
5303;SDS011;2674;49.722;10.892;2023-02-01T13:24:58;9.73;;;2.43;;
5303;SDS011;2674;49.722;10.892;2023-02-01T13:27:44;9.00;;;2.80;;
5303;SDS011;2674;49.722;10.892;2023-02-01T13:30:22;8.40;;;2.10;;
5303;SDS011;2674;49.722;10.892;2023-02-01T13:33:18;11.67;;;2.80;;
5303;SDS011;2674;49.722;10.892;2023-02-01T13:36:03;8.87;;;2.40;;
5303;SDS011;2674;49.722;10.892;2023-02-01T13:41:41;3.90;;;1.93;;
5303;SDS011;2674;49.722;10.892;2023-02-01T13:44:19;16.97;;;9.70;;
5303;SDS011;2674;49.722;10.892;2023-02-01T13:47:00;6.87;;;1.97;;
5303;SDS011;2674;49.722;10.892;2023-02-01T13:49:28;13.63;;;2.20;;
5303;SDS011;2674;49.722;10.892;2023-02-01T13:52:02;6.87;;;2.30;;
5303;SDS011;2674;49.722;10.892;2023-02-01T13:54:32;6.63;;;2.20;;
5303;SDS011;2674;49.722;10.892;2023-02-01T13:57:02;11.30;;;2.50;;
5303;SDS011;2674;49.722;10.892;2023-02-01T14:26:21;10.37;;;2.93;;
5303;SDS011;2674;49.722;10.892;2023-02-01T14:34:13;6.90;;;2.37;;
5303;SDS011;2674;49.722;10.892;2023-02-01T14:36:47;12.10;;;1.70;;
5303;SDS011;2674;49.722;10.892;2023-02-01T14:42:04;4.17;;;2.47;;
5303;SDS011;2674;49.722;10.892;2023-02-01T14:44:42;6.23;;;1.77;;
5303;SDS011;2674;49.722;10.892;2023-02-01T14:50:34;16.63;;;2.37;;
5303;SDS011;2674;49.722;10.892;2023-02-01T14:52:39;8.23;;;2.47;;
5303;SDS011;2674;49.722;10.892;2023-02-01T14:55:21;4.60;;;1.90;;
5303;SDS011;2674;49.722;10.892;2023-02-01T14:57:53;13.10;;;2.43;;
5303;SDS011;2674;49.722;10.892;2023-02-01T15:02:53;9.23;;;2.30;;
5303;SDS011;2674;49.722;10.892;2023-02-01T15:07:56;3.23;;;2.00;;
5303;SDS011;2674;49.722;10.892;2023-02-01T15:10:31;7.90;;;2.40;;
5303;SDS011;2674;49.722;10.892;2023-02-01T15:13:04;4.87;;;1.80;;
5303;SDS011;2674;49.722;10.892;2023-02-01T15:15:30;6.90;;;2.37;;
5303;SDS011;2674;49.722;10.892;2023-02-01T15:18:01;7.50;;;2.10;;
5303;SDS011;2674;49.722;10.892;2023-02-01T15:20:27;8.97;;;2.50;;
5303;SDS011;2674;49.722;10.892;2023-02-01T15:23:02;6.13;;;1.97;;
5303;SDS011;2674;49.722;10.892;2023-02-01T15:25:34;5.37;;;2.27;;
5303;SDS011;2674;49.722;10.892;2023-02-01T15:28:03;15.90;;;6.80;;
5303;SDS011;2674;49.722;10.892;2023-02-01T15:30:32;12.27;;;3.57;;
5303;SDS011;2674;49.722;10.892;2023-02-01T15:33:18;12.43;;;3.40;;
5303;SDS011;2674;49.722;10.892;2023-02-01T15:35:55;11.60;;;7.23;;
5303;SDS011;2674;49.722;10.892;2023-02-01T15:46:36;3.07;;;2.20;;
5303;SDS011;2674;49.722;10.892;2023-02-01T15:49:05;4.73;;;2.00;;
5303;SDS011;2674;49.722;10.892;2023-02-01T15:51:47;4.67;;;2.80;;
5303;SDS011;2674;49.722;10.892;2023-02-01T15:54:16;9.97;;;3.13;;
5303;SDS011;2674;49.722;10.892;2023-02-01T15:56:52;11.57;;;2.83;;
5303;SDS011;2674;49.722;10.892;2023-02-01T15:59:23;16.27;;;3.30;;
5303;SDS011;2674;49.722;10.892;2023-02-01T16:01:53;5.20;;;2.93;;
5303;SDS011;2674;49.722;10.892;2023-02-01T16:04:26;8.00;;;2.63;;
5303;SDS011;2674;49.722;10.892;2023-02-01T16:07:02;8.73;;;3.07;;
5303;SDS011;2674;49.722;10.892;2023-02-01T16:09:53;7.47;;;2.80;;
5303;SDS011;2674;49.722;10.892;2023-02-01T16:12:30;6.00;;;2.30;;
5303;SDS011;2674;49.722;10.892;2023-02-01T16:15:10;6.87;;;2.90;;
5303;SDS011;2674;49.722;10.892;2023-02-01T16:17:36;9.30;;;2.40;;
5303;SDS011;2674;49.722;10.892;2023-02-01T16:20:02;6.17;;;2.60;;
5303;SDS011;2674;49.722;10.892;2023-02-01T16:22:28;9.37;;;1.80;;
5303;SDS011;2674;49.722;10.892;2023-02-01T16:24:54;8.43;;;2.20;;
5303;SDS011;2674;49.722;10.892;2023-02-01T16:27:20;9.67;;;3.07;;
5303;SDS011;2674;49.722;10.892;2023-02-01T16:29:47;12.17;;;3.03;;
5303;SDS011;2674;49.722;10.892;2023-02-01T16:32:15;19.33;;;7.40;;
5303;SDS011;2674;49.722;10.892;2023-02-01T16:34:43;8.20;;;3.30;;
5303;SDS011;2674;49.722;10.892;2023-02-01T16:37:16;10.10;;;3.23;;
5303;SDS011;2674;49.722;10.892;2023-02-01T16:39:46;3.57;;;2.00;;
5303;SDS011;2674;49.722;10.892;2023-02-01T16:42:12;6.33;;;2.93;;
5303;SDS011;2674;49.722;10.892;2023-02-01T16:44:39;4.20;;;1.77;;
5303;SDS011;2674;49.722;10.892;2023-02-01T16:47:09;12.53;;;3.70;;
5303;SDS011;2674;49.722;10.892;2023-02-01T16:49:41;4.47;;;2.37;;
5303;SDS011;2674;49.722;10.892;2023-02-01T16:52:11;12.47;;;2.60;;
5303;SDS011;2674;49.722;10.892;2023-02-01T16:54:41;11.90;;;3.70;;
5303;SDS011;2674;49.722;10.892;2023-02-01T16:57:10;10.40;;;3.40;;
5303;SDS011;2674;49.722;10.892;2023-02-01T16:59:37;11.97;;;3.07;;
5303;SDS011;2674;49.722;10.892;2023-02-01T17:02:03;9.60;;;3.37;;
5303;SDS011;2674;49.722;10.892;2023-02-01T17:04:29;7.27;;;3.13;;
5303;SDS011;2674;49.722;10.892;2023-02-01T17:06:55;10.70;;;3.40;;
5303;SDS011;2674;49.722;10.892;2023-02-01T17:09:20;6.77;;;3.20;;
5303;SDS011;2674;49.722;10.892;2023-02-01T17:11:48;9.27;;;3.30;;
5303;SDS011;2674;49.722;10.892;2023-02-01T17:14:15;11.70;;;3.33;;
5303;SDS011;2674;49.722;10.892;2023-02-01T17:16:42;8.97;;;2.43;;
5303;SDS011;2674;49.722;10.892;2023-02-01T17:19:14;12.60;;;3.37;;
5303;SDS011;2674;49.722;10.892;2023-02-01T17:21:48;9.90;;;3.00;;
5303;SDS011;2674;49.722;10.892;2023-02-01T17:24:18;4.73;;;2.00;;
5303;SDS011;2674;49.722;10.892;2023-02-01T17:26:45;10.83;;;3.17;;
5303;SDS011;2674;49.722;10.892;2023-02-01T17:29:11;5.47;;;2.20;;
5303;SDS011;2674;49.722;10.892;2023-02-01T17:31:38;2.33;;;1.60;;
5303;SDS011;2674;49.722;10.892;2023-02-01T17:34:08;5.30;;;2.50;;
5303;SDS011;2674;49.722;10.892;2023-02-01T17:36:35;13.60;;;2.73;;
5303;SDS011;2674;49.722;10.892;2023-02-01T17:39:01;10.07;;;3.47;;
5303;SDS011;2674;49.722;10.892;2023-02-01T17:41:27;13.70;;;3.13;;
5303;SDS011;2674;49.722;10.892;2023-02-01T17:43:53;6.27;;;2.73;;
5303;SDS011;2674;49.722;10.892;2023-02-01T17:46:18;12.03;;;3.00;;
5303;SDS011;2674;49.722;10.892;2023-02-01T17:48:49;6.13;;;2.40;;
5303;SDS011;2674;49.722;10.892;2023-02-01T17:51:17;10.73;;;2.50;;
5303;SDS011;2674;49.722;10.892;2023-02-01T17:53:53;5.03;;;1.40;;
5303;SDS011;2674;49.722;10.892;2023-02-01T17:56:20;11.03;;;3.67;;
5303;SDS011;2674;49.722;10.892;2023-02-01T17:58:48;8.43;;;2.40;;
5303;SDS011;2674;49.722;10.892;2023-02-01T18:01:18;5.67;;;1.97;;
5303;SDS011;2674;49.722;10.892;2023-02-01T18:03:45;11.10;;;2.63;;
5303;SDS011;2674;49.722;10.892;2023-02-01T18:06:12;10.13;;;2.60;;
5303;SDS011;2674;49.722;10.892;2023-02-01T18:08:50;9.60;;;2.40;;
5303;SDS011;2674;49.722;10.892;2023-02-01T18:11:20;14.37;;;2.50;;
5303;SDS011;2674;49.722;10.892;2023-02-01T18:13:47;9.73;;;3.13;;